sensor_id;sensor_type;location;lat;lon;timestamp;P1;durP1;ratioP1;P2;durP2;ratioP2
22937;SDS011;11634;42.734;23.298;2024-02-23T00:00:00;9.15;;;7.22;;
22937;SDS011;11634;42.734;23.298;2024-02-23T00:02:30;10.77;;;7.28;;
22937;SDS011;11634;42.734;23.298;2024-02-23T00:04:56;8.52;;;7.03;;
22937;SDS011;11634;42.734;23.298;2024-02-23T00:07:21;8.48;;;6.80;;
22937;SDS011;11634;42.734;23.298;2024-02-23T00:09:47;8.93;;;6.80;;
22937;SDS011;11634;42.734;23.298;2024-02-23T00:12:12;13.55;;;7.32;;
22937;SDS011;11634;42.734;23.298;2024-02-23T00:14:39;8.52;;;6.72;;
22937;SDS011;11634;42.734;23.298;2024-02-23T00:17:04;9.55;;;6.30;;
22937;SDS011;11634;42.734;23.298;2024-02-23T00:19:30;8.15;;;6.05;;
22937;SDS011;11634;42.734;23.298;2024-02-23T00:21:56;7.75;;;6.55;;
22937;SDS011;11634;42.734;23.298;2024-02-23T00:24:22;9.60;;;7.00;;
22937;SDS011;11634;42.734;23.298;2024-02-23T00:26:48;9.32;;;7.40;;
22937;SDS011;11634;42.734;23.298;2024-02-23T00:29:16;10.05;;;7.30;;
22937;SDS011;11634;42.734;23.298;2024-02-23T00:31:41;8.93;;;7.00;;
22937;SDS011;11634;42.734;23.298;2024-02-23T00:34:07;8.65;;;7.30;;
22937;SDS011;11634;42.734;23.298;2024-02-23T00:36:42;10.60;;;7.68;;
22937;SDS011;11634;42.734;23.298;2024-02-23T00:39:09;10.52;;;8.52;;
22937;SDS011;11634;42.734;23.298;2024-02-23T00:41:35;11.88;;;8.45;;
22937;SDS011;11634;42.734;23.298;2024-02-23T00:44:03;12.07;;;9.05;;
22937;SDS011;11634;42.734;23.298;2024-02-23T00:46:28;10.88;;;9.02;;
22937;SDS011;11634;42.734;23.298;2024-02-23T00:48:55;10.35;;;8.43;;
22937;SDS011;11634;42.734;23.298;2024-02-23T00:51:21;10.35;;;8.50;;
22937;SDS011;11634;42.734;23.298;2024-02-23T00:53:46;9.48;;;7.82;;
22937;SDS011;11634;42.734;23.298;2024-02-23T00:56:12;9.10;;;7.80;;
22937;SDS011;11634;42.734;23.298;2024-02-23T00:58:38;10.10;;;8.02;;
22937;SDS011;11634;42.734;23.298;2024-02-23T01:01:04;10.45;;;8.00;;
22937;SDS011;11634;42.734;23.298;2024-02-23T01:03:29;9.82;;;7.78;;
22937;SDS011;11634;42.734;23.298;2024-02-23T01:05:55;10.15;;;7.40;;
22937;SDS011;11634;42.734;23.298;2024-02-23T01:08:20;7.70;;;6.90;;
22937;SDS011;11634;42.734;23.298;2024-02-23T01:10:46;7.60;;;6.82;;
22937;SDS011;11634;42.734;23.298;2024-02-23T01:13:11;7.80;;;6.50;;
22937;SDS011;11634;42.734;23.298;2024-02-23T01:15:37;9.10;;;7.50;;
22937;SDS011;11634;42.734;23.298;2024-02-23T01:18:03;12.48;;;8.07;;
22937;SDS011;11634;42.734;23.298;2024-02-23T01:20:28;9.02;;;7.38;;
22937;SDS011;11634;42.734;23.298;2024-02-23T01:22:54;9.50;;;7.63;;
22937;SDS011;11634;42.734;23.298;2024-02-23T01:25:20;12.30;;;8.13;;
22937;SDS011;11634;42.734;23.298;2024-02-23T01:27:45;9.15;;;7.55;;
22937;SDS011;11634;42.734;23.298;2024-02-23T01:30:13;11.02;;;8.35;;
22937;SDS011;11634;42.734;23.298;2024-02-23T01:32:39;9.90;;;8.40;;
22937;SDS011;11634;42.734;23.298;2024-02-23T01:35:05;10.43;;;8.88;;
22937;SDS011;11634;42.734;23.298;2024-02-23T01:37:31;12.07;;;8.65;;
22937;SDS011;11634;42.734;23.298;2024-02-23T01:39:57;11.85;;;8.95;;
22937;SDS011;11634;42.734;23.298;2024-02-23T01:42:23;9.68;;;8.50;;
22937;SDS011;11634;42.734;23.298;2024-02-23T01:44:50;10.90;;;8.88;;
22937;SDS011;11634;42.734;23.298;2024-02-23T01:47:15;12.60;;;9.27;;
22937;SDS011;11634;42.734;23.298;2024-02-23T01:49:42;11.80;;;9.10;;
22937;SDS011;11634;42.734;23.298;2024-02-23T01:52:07;13.52;;;9.82;;
22937;SDS011;11634;42.734;23.298;2024-02-23T01:54:41;13.80;;;11.40;;
22937;SDS011;11634;42.734;23.298;2024-02-23T01:57:06;14.90;;;11.60;;
22937;SDS011;11634;42.734;23.298;2024-02-23T01:59:33;14.65;;;11.98;;
22937;SDS011;11634;42.734;23.298;2024-02-23T02:02:04;13.52;;;11.10;;
22937;SDS011;11634;42.734;23.298;2024-02-23T02:04:31;15.52;;;12.73;;
22937;SDS011;11634;42.734;23.298;2024-02-23T02:07:02;14.82;;;12.25;;
22937;SDS011;11634;42.734;23.298;2024-02-23T02:09:27;17.05;;;13.13;;
22937;SDS011;11634;42.734;23.298;2024-02-23T02:11:54;16.70;;;12.43;;
22937;SDS011;11634;42.734;23.298;2024-02-23T02:14:19;18.30;;;13.95;;
22937;SDS011;11634;42.734;23.298;2024-02-23T02:16:45;16.58;;;13.43;;
22937;SDS011;11634;42.734;23.298;2024-02-23T02:19:11;16.45;;;12.05;;
22937;SDS011;11634;42.734;23.298;2024-02-23T02:21:36;17.40;;;13.10;;
22937;SDS011;11634;42.734;23.298;2024-02-23T02:24:02;21.00;;;14.50;;
22937;SDS011;11634;42.734;23.298;2024-02-23T02:26:28;16.02;;;12.35;;
22937;SDS011;11634;42.734;23.298;2024-02-23T02:28:53;15.82;;;13.50;;
22937;SDS011;11634;42.734;23.298;2024-02-23T02:31:19;15.82;;;12.93;;
22937;SDS011;11634;42.734;23.298;2024-02-23T02:33:44;16.80;;;13.27;;
22937;SDS011;11634;42.734;23.298;2024-02-23T02:36:10;18.02;;;13.30;;
22937;SDS011;11634;42.734;23.298;2024-02-23T02:38:38;17.17;;;13.70;;
22937;SDS011;11634;42.734;23.298;2024-02-23T02:41:03;17.85;;;14.38;;
22937;SDS011;11634;42.734;23.298;2024-02-23T02:43:30;18.70;;;14.63;;
22937;SDS011;11634;42.734;23.298;2024-02-23T02:45:56;19.98;;;14.60;;
22937;SDS011;11634;42.734;23.298;2024-02-23T02:48:22;16.70;;;14.35;;
22937;SDS011;11634;42.734;23.298;2024-02-23T02:50:47;18.35;;;15.23;;
22937;SDS011;11634;42.734;23.298;2024-02-23T02:53:15;19.55;;;15.55;;
22937;SDS011;11634;42.734;23.298;2024-02-23T02:55:41;19.75;;;15.50;;
22937;SDS011;11634;42.734;23.298;2024-02-23T02:58:07;17.58;;;14.40;;
22937;SDS011;11634;42.734;23.298;2024-02-23T03:00:33;18.33;;;15.18;;
22937;SDS011;11634;42.734;23.298;2024-02-23T03:02:58;19.20;;;14.90;;
22937;SDS011;11634;42.734;23.298;2024-02-23T03:05:24;23.55;;;15.30;;
22937;SDS011;11634;42.734;23.298;2024-02-23T03:07:49;25.83;;;17.02;;
22937;SDS011;11634;42.734;23.298;2024-02-23T03:10:15;22.55;;;14.75;;
22937;SDS011;11634;42.734;23.298;2024-02-23T03:12:41;18.00;;;14.73;;
22937;SDS011;11634;42.734;23.298;2024-02-23T03:15:07;21.40;;;15.32;;
22937;SDS011;11634;42.734;23.298;2024-02-23T03:17:32;22.38;;;15.10;;
22937;SDS011;11634;42.734;23.298;2024-02-23T03:19:58;19.48;;;15.25;;
22937;SDS011;11634;42.734;23.298;2024-02-23T03:22:24;22.38;;;17.80;;
22937;SDS011;11634;42.734;23.298;2024-02-23T03:24:49;23.40;;;16.48;;
22937;SDS011;11634;42.734;23.298;2024-02-23T03:27:15;23.45;;;15.93;;
22937;SDS011;11634;42.734;23.298;2024-02-23T03:29:40;19.63;;;15.80;;
22937;SDS011;11634;42.734;23.298;2024-02-23T03:32:06;20.38;;;14.63;;
22937;SDS011;11634;42.734;23.298;2024-02-23T03:34:33;22.80;;;16.10;;
22937;SDS011;11634;42.734;23.298;2024-02-23T03:36:58;16.58;;;12.70;;
22937;SDS011;11634;42.734;23.298;2024-02-23T03:39:26;20.23;;;14.30;;
22937;SDS011;11634;42.734;23.298;2024-02-23T03:41:51;18.05;;;13.27;;
22937;SDS011;11634;42.734;23.298;2024-02-23T03:44:17;14.77;;;12.65;;
22937;SDS011;11634;42.734;23.298;2024-02-23T03:46:42;13.05;;;11.10;;
22937;SDS011;11634;42.734;23.298;2024-02-23T03:49:08;16.83;;;12.45;;
22937;SDS011;11634;42.734;23.298;2024-02-23T03:51:33;17.27;;;13.25;;
22937;SDS011;11634;42.734;23.298;2024-02-23T03:54:02;16.65;;;12.35;;
22937;SDS011;11634;42.734;23.298;2024-02-23T03:56:40;18.50;;;12.98;;
22937;SDS011;11634;42.734;23.298;2024-02-23T03:59:07;18.42;;;12.82;;
22937;SDS011;11634;42.734;23.298;2024-02-23T04:01:36;19.05;;;13.40;;
22937;SDS011;11634;42.734;23.298;2024-02-23T04:04:02;16.58;;;13.30;;
22937;SDS011;11634;42.734;23.298;2024-02-23T04:06:27;15.85;;;13.00;;
22937;SDS011;11634;42.734;23.298;2024-02-23T04:08:53;16.10;;;13.15;;
22937;SDS011;11634;42.734;23.298;2024-02-23T04:11:18;15.25;;;12.30;;
22937;SDS011;11634;42.734;23.298;2024-02-23T04:13:44;18.38;;;12.52;;
22937;SDS011;11634;42.734;23.298;2024-02-23T04:16:10;17.33;;;13.63;;
22937;SDS011;11634;42.734;23.298;2024-02-23T04:18:35;17.08;;;12.52;;
22937;SDS011;11634;42.734;23.298;2024-02-23T04:21:01;18.02;;;13.35;;
22937;SDS011;11634;42.734;23.298;2024-02-23T04:23:26;20.35;;;14.65;;
22937;SDS011;11634;42.734;23.298;2024-02-23T04:25:53;19.83;;;14.27;;
22937;SDS011;11634;42.734;23.298;2024-02-23T04:28:19;16.70;;;13.50;;
22937;SDS011;11634;42.734;23.298;2024-02-23T04:30:45;17.50;;;13.48;;
22937;SDS011;11634;42.734;23.298;2024-02-23T04:33:10;18.10;;;13.18;;
22937;SDS011;11634;42.734;23.298;2024-02-23T04:35:36;23.30;;;13.75;;
22937;SDS011;11634;42.734;23.298;2024-02-23T04:38:02;18.50;;;13.82;;
22937;SDS011;11634;42.734;23.298;2024-02-23T04:40:27;18.40;;;13.05;;
22937;SDS011;11634;42.734;23.298;2024-02-23T04:42:52;19.50;;;14.40;;
22937;SDS011;11634;42.734;23.298;2024-02-23T04:45:18;22.27;;;14.60;;
22937;SDS011;11634;42.734;23.298;2024-02-23T04:47:43;20.98;;;14.45;;
22937;SDS011;11634;42.734;23.298;2024-02-23T04:50:12;20.30;;;14.50;;
22937;SDS011;11634;42.734;23.298;2024-02-23T04:52:38;19.05;;;14.13;;
22937;SDS011;11634;42.734;23.298;2024-02-23T04:55:05;20.75;;;16.27;;
22937;SDS011;11634;42.734;23.298;2024-02-23T04:57:31;21.95;;;15.43;;
22937;SDS011;11634;42.734;23.298;2024-02-23T04:59:56;21.85;;;16.52;;
22937;SDS011;11634;42.734;23.298;2024-02-23T05:02:22;23.73;;;17.50;;
22937;SDS011;11634;42.734;23.298;2024-02-23T05:04:50;25.20;;;18.67;;
22937;SDS011;11634;42.734;23.298;2024-02-23T05:07:15;24.65;;;16.95;;
22937;SDS011;11634;42.734;23.298;2024-02-23T05:09:41;25.52;;;17.42;;
22937;SDS011;11634;42.734;23.298;2024-02-23T05:12:07;23.98;;;16.75;;
22937;SDS011;11634;42.734;23.298;2024-02-23T05:14:33;23.30;;;17.42;;
22937;SDS011;11634;42.734;23.298;2024-02-23T05:17:01;24.40;;;17.70;;
22937;SDS011;11634;42.734;23.298;2024-02-23T05:19:26;24.42;;;17.65;;
22937;SDS011;11634;42.734;23.298;2024-02-23T05:21:52;26.30;;;17.70;;
22937;SDS011;11634;42.734;23.298;2024-02-23T05:24:17;22.55;;;17.73;;
22937;SDS011;11634;42.734;23.298;2024-02-23T05:26:44;29.90;;;17.42;;
22937;SDS011;11634;42.734;23.298;2024-02-23T05:29:11;24.98;;;19.70;;
22937;SDS011;11634;42.734;23.298;2024-02-23T05:31:45;24.38;;;16.60;;
22937;SDS011;11634;42.734;23.298;2024-02-23T05:34:11;25.60;;;18.80;;
22937;SDS011;11634;42.734;23.298;2024-02-23T05:36:46;29.58;;;20.45;;
22937;SDS011;11634;42.734;23.298;2024-02-23T05:39:12;20.67;;;16.10;;
22937;SDS011;11634;42.734;23.298;2024-02-23T05:41:41;24.23;;;17.88;;
22937;SDS011;11634;42.734;23.298;2024-02-23T05:44:07;23.75;;;16.80;;
22937;SDS011;11634;42.734;23.298;2024-02-23T05:46:33;24.42;;;15.43;;
22937;SDS011;11634;42.734;23.298;2024-02-23T05:48:58;21.17;;;16.02;;
22937;SDS011;11634;42.734;23.298;2024-02-23T05:51:24;29.88;;;17.27;;
22937;SDS011;11634;42.734;23.298;2024-02-23T05:53:50;23.55;;;16.30;;
22937;SDS011;11634;42.734;23.298;2024-02-23T05:56:16;24.70;;;16.20;;
22937;SDS011;11634;42.734;23.298;2024-02-23T05:58:41;24.73;;;15.35;;
22937;SDS011;11634;42.734;23.298;2024-02-23T06:01:09;16.80;;;13.55;;
22937;SDS011;11634;42.734;23.298;2024-02-23T06:03:35;19.52;;;14.15;;
22937;SDS011;11634;42.734;23.298;2024-02-23T06:06:00;19.77;;;13.25;;
22937;SDS011;11634;42.734;23.298;2024-02-23T06:08:26;19.35;;;12.35;;
22937;SDS011;11634;42.734;23.298;2024-02-23T06:10:51;17.80;;;12.75;;
22937;SDS011;11634;42.734;23.298;2024-02-23T06:13:17;21.90;;;12.63;;
22937;SDS011;11634;42.734;23.298;2024-02-23T06:15:42;22.45;;;13.18;;
22937;SDS011;11634;42.734;23.298;2024-02-23T06:18:08;25.40;;;13.23;;
22937;SDS011;11634;42.734;23.298;2024-02-23T06:20:34;21.00;;;13.43;;
22937;SDS011;11634;42.734;23.298;2024-02-23T06:22:59;19.77;;;12.93;;
22937;SDS011;11634;42.734;23.298;2024-02-23T06:25:25;18.38;;;13.30;;
22937;SDS011;11634;42.734;23.298;2024-02-23T06:27:50;24.60;;;13.13;;
22937;SDS011;11634;42.734;23.298;2024-02-23T06:30:20;26.48;;;13.65;;
22937;SDS011;11634;42.734;23.298;2024-02-23T06:32:46;23.40;;;13.52;;
22937;SDS011;11634;42.734;23.298;2024-02-23T06:35:11;23.00;;;14.32;;
22937;SDS011;11634;42.734;23.298;2024-02-23T06:37:37;21.55;;;13.88;;
22937;SDS011;11634;42.734;23.298;2024-02-23T06:40:03;16.52;;;12.63;;
22937;SDS011;11634;42.734;23.298;2024-02-23T06:42:29;20.40;;;12.40;;
22937;SDS011;11634;42.734;23.298;2024-02-23T06:44:55;19.60;;;12.90;;
22937;SDS011;11634;42.734;23.298;2024-02-23T06:47:20;39.25;;;14.75;;
22937;SDS011;11634;42.734;23.298;2024-02-23T06:49:46;21.38;;;14.65;;
22937;SDS011;11634;42.734;23.298;2024-02-23T06:52:12;18.00;;;13.82;;
22937;SDS011;11634;42.734;23.298;2024-02-23T06:54:37;16.63;;;13.85;;
22937;SDS011;11634;42.734;23.298;2024-02-23T06:57:03;22.50;;;13.40;;
22937;SDS011;11634;42.734;23.298;2024-02-23T06:59:29;20.63;;;13.75;;
22937;SDS011;11634;42.734;23.298;2024-02-23T07:01:54;20.17;;;13.75;;
22937;SDS011;11634;42.734;23.298;2024-02-23T07:04:20;32.55;;;15.15;;
22937;SDS011;11634;42.734;23.298;2024-02-23T07:06:46;19.42;;;13.82;;
22937;SDS011;11634;42.734;23.298;2024-02-23T07:09:11;20.25;;;15.15;;
22937;SDS011;11634;42.734;23.298;2024-02-23T07:11:37;19.50;;;15.40;;
22937;SDS011;11634;42.734;23.298;2024-02-23T07:14:03;22.65;;;15.00;;
22937;SDS011;11634;42.734;23.298;2024-02-23T07:16:29;22.88;;;15.27;;
22937;SDS011;11634;42.734;23.298;2024-02-23T07:18:55;21.02;;;15.45;;
22937;SDS011;11634;42.734;23.298;2024-02-23T07:21:22;22.55;;;16.60;;
22937;SDS011;11634;42.734;23.298;2024-02-23T07:23:47;21.02;;;15.35;;
22937;SDS011;11634;42.734;23.298;2024-02-23T07:26:13;19.35;;;15.38;;
22937;SDS011;11634;42.734;23.298;2024-02-23T07:28:38;20.90;;;17.70;;
22937;SDS011;11634;42.734;23.298;2024-02-23T07:31:04;23.73;;;19.70;;
22937;SDS011;11634;42.734;23.298;2024-02-23T07:33:29;29.55;;;20.08;;
22937;SDS011;11634;42.734;23.298;2024-02-23T07:35:55;27.00;;;19.58;;
22937;SDS011;11634;42.734;23.298;2024-02-23T07:38:20;27.67;;;19.98;;
22937;SDS011;11634;42.734;23.298;2024-02-23T07:40:46;27.45;;;19.33;;
22937;SDS011;11634;42.734;23.298;2024-02-23T07:43:11;26.58;;;18.25;;
22937;SDS011;11634;42.734;23.298;2024-02-23T07:45:38;26.98;;;19.13;;
22937;SDS011;11634;42.734;23.298;2024-02-23T07:48:04;25.60;;;19.17;;
22937;SDS011;11634;42.734;23.298;2024-02-23T07:50:29;27.60;;;19.73;;
22937;SDS011;11634;42.734;23.298;2024-02-23T07:52:55;30.48;;;18.98;;
22937;SDS011;11634;42.734;23.298;2024-02-23T07:55:23;27.23;;;19.23;;
22937;SDS011;11634;42.734;23.298;2024-02-23T07:57:49;27.85;;;18.83;;
22937;SDS011;11634;42.734;23.298;2024-02-23T08:00:14;28.35;;;19.23;;
22937;SDS011;11634;42.734;23.298;2024-02-23T08:02:40;25.88;;;17.70;;
22937;SDS011;11634;42.734;23.298;2024-02-23T08:05:06;32.47;;;17.95;;
22937;SDS011;11634;42.734;23.298;2024-02-23T08:07:32;18.67;;;15.27;;
22937;SDS011;11634;42.734;23.298;2024-02-23T08:09:57;19.25;;;15.30;;
22937;SDS011;11634;42.734;23.298;2024-02-23T08:12:23;22.92;;;16.02;;
22937;SDS011;11634;42.734;23.298;2024-02-23T08:14:50;20.67;;;15.45;;
22937;SDS011;11634;42.734;23.298;2024-02-23T08:17:18;21.45;;;16.15;;
22937;SDS011;11634;42.734;23.298;2024-02-23T08:19:46;20.15;;;14.80;;
22937;SDS011;11634;42.734;23.298;2024-02-23T08:22:13;22.42;;;14.98;;
22937;SDS011;11634;42.734;23.298;2024-02-23T08:24:38;20.42;;;15.27;;
22937;SDS011;11634;42.734;23.298;2024-02-23T08:27:08;19.13;;;14.88;;
22937;SDS011;11634;42.734;23.298;2024-02-23T08:29:37;19.50;;;15.32;;
22937;SDS011;11634;42.734;23.298;2024-02-23T08:32:05;21.15;;;16.20;;
22937;SDS011;11634;42.734;23.298;2024-02-23T08:34:31;23.55;;;15.38;;
22937;SDS011;11634;42.734;23.298;2024-02-23T08:36:56;18.92;;;14.93;;
22937;SDS011;11634;42.734;23.298;2024-02-23T08:39:22;21.35;;;15.15;;
22937;SDS011;11634;42.734;23.298;2024-02-23T08:41:48;20.58;;;14.98;;
22937;SDS011;11634;42.734;23.298;2024-02-23T08:44:13;20.13;;;15.70;;
22937;SDS011;11634;42.734;23.298;2024-02-23T08:46:39;21.38;;;14.00;;
22937;SDS011;11634;42.734;23.298;2024-02-23T08:49:05;15.43;;;11.43;;
22937;SDS011;11634;42.734;23.298;2024-02-23T08:51:30;13.40;;;9.90;;
22937;SDS011;11634;42.734;23.298;2024-02-23T08:53:56;12.43;;;9.75;;
22937;SDS011;11634;42.734;23.298;2024-02-23T08:56:28;14.40;;;10.73;;
22937;SDS011;11634;42.734;23.298;2024-02-23T08:58:56;14.93;;;10.95;;
22937;SDS011;11634;42.734;23.298;2024-02-23T09:01:22;15.27;;;10.23;;
22937;SDS011;11634;42.734;23.298;2024-02-23T09:03:47;10.55;;;8.18;;
22937;SDS011;11634;42.734;23.298;2024-02-23T09:06:13;11.65;;;7.47;;
22937;SDS011;11634;42.734;23.298;2024-02-23T09:08:41;22.65;;;8.80;;
22937;SDS011;11634;42.734;23.298;2024-02-23T09:11:07;7.05;;;6.20;;
22937;SDS011;11634;42.734;23.298;2024-02-23T09:13:34;22.20;;;7.00;;
22937;SDS011;11634;42.734;23.298;2024-02-23T09:16:22;5.25;;;4.72;;
22937;SDS011;11634;42.734;23.298;2024-02-23T09:18:50;9.05;;;4.80;;
22937;SDS011;11634;42.734;23.298;2024-02-23T09:21:18;8.02;;;4.80;;
22937;SDS011;11634;42.734;23.298;2024-02-23T09:23:44;7.63;;;4.50;;
22937;SDS011;11634;42.734;23.298;2024-02-23T09:26:09;13.88;;;5.47;;
22937;SDS011;11634;42.734;23.298;2024-02-23T09:28:38;27.02;;;7.13;;
22937;SDS011;11634;42.734;23.298;2024-02-23T09:31:06;9.73;;;5.57;;
22937;SDS011;11634;42.734;23.298;2024-02-23T09:33:34;5.43;;;4.03;;
22937;SDS011;11634;42.734;23.298;2024-02-23T09:36:00;7.68;;;3.97;;
22937;SDS011;11634;42.734;23.298;2024-02-23T09:38:26;5.78;;;3.80;;
22937;SDS011;11634;42.734;23.298;2024-02-23T09:40:55;22.00;;;4.68;;
22937;SDS011;11634;42.734;23.298;2024-02-23T09:43:24;4.38;;;3.50;;
22937;SDS011;11634;42.734;23.298;2024-02-23T09:45:52;3.72;;;3.38;;
22937;SDS011;11634;42.734;23.298;2024-02-23T09:48:18;6.85;;;3.60;;
22937;SDS011;11634;42.734;23.298;2024-02-23T09:50:45;5.25;;;3.72;;
22937;SDS011;11634;42.734;23.298;2024-02-23T09:53:11;4.90;;;4.15;;
22937;SDS011;11634;42.734;23.298;2024-02-23T09:55:38;4.45;;;3.80;;
22937;SDS011;11634;42.734;23.298;2024-02-23T09:58:04;6.70;;;4.00;;
22937;SDS011;11634;42.734;23.298;2024-02-23T10:00:29;5.38;;;3.60;;
22937;SDS011;11634;42.734;23.298;2024-02-23T10:02:55;5.75;;;3.50;;
22937;SDS011;11634;42.734;23.298;2024-02-23T10:05:23;6.53;;;3.20;;
22937;SDS011;11634;42.734;23.298;2024-02-23T10:07:49;4.53;;;2.97;;
22937;SDS011;11634;42.734;23.298;2024-02-23T10:10:24;5.28;;;3.63;;
22937;SDS011;11634;42.734;23.298;2024-02-23T10:12:51;7.70;;;3.65;;
22937;SDS011;11634;42.734;23.298;2024-02-23T10:15:17;7.20;;;3.58;;
22937;SDS011;11634;42.734;23.298;2024-02-23T10:17:43;3.80;;;3.22;;
22937;SDS011;11634;42.734;23.298;2024-02-23T10:20:08;2.42;;;2.00;;
22937;SDS011;11634;42.734;23.298;2024-02-23T10:22:36;14.38;;;2.88;;
22937;SDS011;11634;42.734;23.298;2024-02-23T10:25:01;9.30;;;3.72;;
22937;SDS011;11634;42.734;23.298;2024-02-23T10:27:27;2.40;;;2.20;;
22937;SDS011;11634;42.734;23.298;2024-02-23T10:29:53;3.22;;;2.30;;
22937;SDS011;11634;42.734;23.298;2024-02-23T10:32:20;2.88;;;2.50;;
22937;SDS011;11634;42.734;23.298;2024-02-23T10:34:48;3.47;;;2.30;;
22937;SDS011;11634;42.734;23.298;2024-02-23T10:37:16;4.03;;;2.45;;
22937;SDS011;11634;42.734;23.298;2024-02-23T10:39:42;5.95;;;2.50;;
22937;SDS011;11634;42.734;23.298;2024-02-23T10:42:09;8.10;;;2.42;;
22937;SDS011;11634;42.734;23.298;2024-02-23T10:44:35;19.15;;;3.05;;
22937;SDS011;11634;42.734;23.298;2024-02-23T10:47:01;4.47;;;2.10;;
22937;SDS011;11634;42.734;23.298;2024-02-23T10:49:26;5.90;;;2.50;;
22937;SDS011;11634;42.734;23.298;2024-02-23T10:51:53;4.68;;;2.30;;
22937;SDS011;11634;42.734;23.298;2024-02-23T10:54:19;9.07;;;2.75;;
22937;SDS011;11634;42.734;23.298;2024-02-23T10:56:52;15.65;;;2.83;;
22937;SDS011;11634;42.734;23.298;2024-02-23T10:59:18;7.57;;;2.53;;
22937;SDS011;11634;42.734;23.298;2024-02-23T11:01:47;5.57;;;2.72;;
22937;SDS011;11634;42.734;23.298;2024-02-23T11:04:15;4.97;;;2.47;;
22937;SDS011;11634;42.734;23.298;2024-02-23T11:06:41;3.22;;;2.20;;
22937;SDS011;11634;42.734;23.298;2024-02-23T11:09:07;4.78;;;2.33;;
22937;SDS011;11634;42.734;23.298;2024-02-23T11:11:33;5.20;;;2.25;;
22937;SDS011;11634;42.734;23.298;2024-02-23T11:13:59;23.42;;;3.47;;
22937;SDS011;11634;42.734;23.298;2024-02-23T11:16:28;3.45;;;2.30;;
22937;SDS011;11634;42.734;23.298;2024-02-23T11:19:06;4.03;;;2.03;;
22937;SDS011;11634;42.734;23.298;2024-02-23T11:21:35;4.88;;;2.80;;
22937;SDS011;11634;42.734;23.298;2024-02-23T11:24:04;3.85;;;2.83;;
22937;SDS011;11634;42.734;23.298;2024-02-23T11:26:30;3.38;;;2.60;;
22937;SDS011;11634;42.734;23.298;2024-02-23T11:28:57;3.35;;;2.60;;
22937;SDS011;11634;42.734;23.298;2024-02-23T11:31:25;5.68;;;2.55;;
22937;SDS011;11634;42.734;23.298;2024-02-23T11:33:54;3.58;;;1.80;;
22937;SDS011;11634;42.734;23.298;2024-02-23T11:38:51;4.45;;;2.13;;
22937;SDS011;11634;42.734;23.298;2024-02-23T11:41:17;3.75;;;2.10;;
22937;SDS011;11634;42.734;23.298;2024-02-23T11:43:43;2.90;;;1.88;;
22937;SDS011;11634;42.734;23.298;2024-02-23T11:46:10;10.35;;;2.35;;
22937;SDS011;11634;42.734;23.298;2024-02-23T11:48:36;2.92;;;2.10;;
22937;SDS011;11634;42.734;23.298;2024-02-23T11:51:01;5.93;;;2.35;;
22937;SDS011;11634;42.734;23.298;2024-02-23T11:53:27;10.43;;;2.53;;
22937;SDS011;11634;42.734;23.298;2024-02-23T11:55:52;2.95;;;2.40;;
22937;SDS011;11634;42.734;23.298;2024-02-23T11:58:18;3.83;;;1.85;;
22937;SDS011;11634;42.734;23.298;2024-02-23T12:00:44;3.10;;;2.17;;
22937;SDS011;11634;42.734;23.298;2024-02-23T12:03:11;3.38;;;1.95;;
22937;SDS011;11634;42.734;23.298;2024-02-23T12:05:36;3.13;;;2.00;;
22937;SDS011;11634;42.734;23.298;2024-02-23T12:08:02;13.63;;;2.45;;
22937;SDS011;11634;42.734;23.298;2024-02-23T12:10:29;4.45;;;2.17;;
22937;SDS011;11634;42.734;23.298;2024-02-23T12:12:55;4.70;;;2.15;;
22937;SDS011;11634;42.734;23.298;2024-02-23T12:15:22;5.85;;;2.53;;
22937;SDS011;11634;42.734;23.298;2024-02-23T12:17:47;4.45;;;1.92;;
22937;SDS011;11634;42.734;23.298;2024-02-23T12:20:13;5.20;;;2.30;;
22937;SDS011;11634;42.734;23.298;2024-02-23T12:22:40;7.63;;;2.17;;
22937;SDS011;11634;42.734;23.298;2024-02-23T12:25:06;5.53;;;2.30;;
22937;SDS011;11634;42.734;23.298;2024-02-23T12:27:31;5.13;;;1.90;;
22937;SDS011;11634;42.734;23.298;2024-02-23T12:29:57;3.50;;;1.83;;
22937;SDS011;11634;42.734;23.298;2024-02-23T12:32:23;4.15;;;1.90;;
22937;SDS011;11634;42.734;23.298;2024-02-23T12:34:48;2.70;;;1.98;;
22937;SDS011;11634;42.734;23.298;2024-02-23T12:37:14;3.80;;;1.65;;
22937;SDS011;11634;42.734;23.298;2024-02-23T12:39:41;4.40;;;2.10;;
22937;SDS011;11634;42.734;23.298;2024-02-23T12:42:07;3.30;;;1.90;;
22937;SDS011;11634;42.734;23.298;2024-02-23T12:44:33;5.13;;;1.95;;
22937;SDS011;11634;42.734;23.298;2024-02-23T12:46:58;4.18;;;1.55;;
22937;SDS011;11634;42.734;23.298;2024-02-23T12:49:24;10.77;;;2.13;;
22937;SDS011;11634;42.734;23.298;2024-02-23T12:51:49;3.10;;;1.85;;
22937;SDS011;11634;42.734;23.298;2024-02-23T12:54:14;4.78;;;2.10;;
22937;SDS011;11634;42.734;23.298;2024-02-23T12:56:40;5.97;;;1.88;;
22937;SDS011;11634;42.734;23.298;2024-02-23T12:59:06;5.72;;;1.90;;
22937;SDS011;11634;42.734;23.298;2024-02-23T13:01:32;11.93;;;2.40;;
22937;SDS011;11634;42.734;23.298;2024-02-23T13:04:01;3.38;;;1.52;;
22937;SDS011;11634;42.734;23.298;2024-02-23T13:06:27;3.97;;;2.00;;
22937;SDS011;11634;42.734;23.298;2024-02-23T13:08:53;5.35;;;2.22;;
22937;SDS011;11634;42.734;23.298;2024-02-23T13:11:18;6.30;;;2.28;;
22937;SDS011;11634;42.734;23.298;2024-02-23T13:13:44;3.65;;;2.13;;
22937;SDS011;11634;42.734;23.298;2024-02-23T13:16:10;6.20;;;2.22;;
22937;SDS011;11634;42.734;23.298;2024-02-23T13:18:36;5.35;;;2.30;;
22937;SDS011;11634;42.734;23.298;2024-02-23T13:21:02;4.28;;;2.42;;
22937;SDS011;11634;42.734;23.298;2024-02-23T13:23:28;2.83;;;2.20;;
22937;SDS011;11634;42.734;23.298;2024-02-23T13:25:54;7.47;;;2.10;;
22937;SDS011;11634;42.734;23.298;2024-02-23T13:28:19;2.35;;;1.65;;
22937;SDS011;11634;42.734;23.298;2024-02-23T13:30:45;2.58;;;1.40;;
22937;SDS011;11634;42.734;23.298;2024-02-23T13:33:11;6.78;;;2.35;;
22937;SDS011;11634;42.734;23.298;2024-02-23T13:35:36;3.40;;;2.05;;
22937;SDS011;11634;42.734;23.298;2024-02-23T13:38:02;4.07;;;2.05;;
22937;SDS011;11634;42.734;23.298;2024-02-23T13:40:30;17.40;;;2.67;;
22937;SDS011;11634;42.734;23.298;2024-02-23T13:42:56;3.45;;;2.30;;
22937;SDS011;11634;42.734;23.298;2024-02-23T13:45:23;3.13;;;1.83;;
22937;SDS011;11634;42.734;23.298;2024-02-23T13:48:02;2.55;;;1.98;;
22937;SDS011;11634;42.734;23.298;2024-02-23T13:50:28;4.57;;;2.00;;
22937;SDS011;11634;42.734;23.298;2024-02-23T13:52:54;3.25;;;2.03;;
22937;SDS011;11634;42.734;23.298;2024-02-23T13:55:19;3.75;;;2.47;;
22937;SDS011;11634;42.734;23.298;2024-02-23T13:57:46;9.18;;;2.50;;
22937;SDS011;11634;42.734;23.298;2024-02-23T14:00:12;6.22;;;2.15;;
22937;SDS011;11634;42.734;23.298;2024-02-23T14:02:38;5.20;;;2.25;;
22937;SDS011;11634;42.734;23.298;2024-02-23T14:05:06;4.55;;;2.30;;
22937;SDS011;11634;42.734;23.298;2024-02-23T14:07:33;3.30;;;2.15;;
22937;SDS011;11634;42.734;23.298;2024-02-23T14:10:00;3.80;;;2.30;;
22937;SDS011;11634;42.734;23.298;2024-02-23T14:12:29;2.63;;;2.10;;
22937;SDS011;11634;42.734;23.298;2024-02-23T14:14:55;3.45;;;2.22;;
22937;SDS011;11634;42.734;23.298;2024-02-23T14:17:21;3.92;;;2.30;;